sensor_id;sensor_type;location;lat;lon;timestamp;pressure;altitude;pressure_sealevel;temperature;humidity
76551;BME280;68768;53.156;18.164;2023-07-24T00:02:09;100371.46;;;18.91;57.56
76551;BME280;68768;53.156;18.164;2023-07-24T00:04:36;100376.02;;;18.87;57.47
76551;BME280;68768;53.156;18.164;2023-07-24T00:07:03;100371.40;;;18.84;57.54
76551;BME280;68768;53.156;18.164;2023-07-24T00:09:30;100376.30;;;18.82;57.59
76551;BME280;68768;53.156;18.164;2023-07-24T00:11:57;100371.61;;;18.80;57.62
76551;BME280;68768;53.156;18.164;2023-07-24T00:14:24;100376.64;;;18.77;57.67
76551;BME280;68768;53.156;18.164;2023-07-24T00:16:52;100375.85;;;18.74;57.77
76551;BME280;68768;53.156;18.164;2023-07-24T00:19:19;100377.33;;;18.71;57.69
76551;BME280;68768;53.156;18.164;2023-07-24T00:21:46;100376.10;;;18.68;57.76
76551;BME280;68768;53.156;18.164;2023-07-24T00:24:13;100375.43;;;18.65;57.82
76551;BME280;68768;53.156;18.164;2023-07-24T00:26:40;100373.71;;;18.62;57.90
76551;BME280;68768;53.156;18.164;2023-07-24T00:29:07;100371.68;;;18.58;58.02
76551;BME280;68768;53.156;18.164;2023-07-24T00:31:36;100370.46;;;18.55;57.89
76551;BME280;68768;53.156;18.164;2023-07-24T00:34:03;100374.16;;;18.51;57.93
76551;BME280;68768;53.156;18.164;2023-07-24T00:36:30;100370.95;;;18.49;57.88
76551;BME280;68768;53.156;18.164;2023-07-24T00:38:57;100371.94;;;18.47;57.98
76551;BME280;68768;53.156;18.164;2023-07-24T00:41:24;100371.33;;;18.46;57.86
76551;BME280;68768;53.156;18.164;2023-07-24T00:43:52;100368.80;;;18.44;57.80
76551;BME280;68768;53.156;18.164;2023-07-24T00:46:19;100373.89;;;18.41;57.81
76551;BME280;68768;53.156;18.164;2023-07-24T00:48:46;100376.34;;;18.39;57.63
76551;BME280;68768;53.156;18.164;2023-07-24T00:51:13;100373.63;;;18.36;57.56
76551;BME280;68768;53.156;18.164;2023-07-24T00:53:40;100373.19;;;18.35;57.51
76551;BME280;68768;53.156;18.164;2023-07-24T00:56:08;100379.83;;;18.33;57.45
76551;BME280;68768;53.156;18.164;2023-07-24T00:58:37;100379.11;;;18.31;57.58
76551;BME280;68768;53.156;18.164;2023-07-24T01:01:04;100378.42;;;18.28;57.62
76551;BME280;68768;53.156;18.164;2023-07-24T01:03:34;100375.80;;;18.27;57.59
76551;BME280;68768;53.156;18.164;2023-07-24T01:06:02;100375.13;;;18.26;57.62
76551;BME280;68768;53.156;18.164;2023-07-24T01:08:29;100376.48;;;18.25;57.68
76551;BME280;68768;53.156;18.164;2023-07-24T01:10:59;100380.78;;;18.23;57.61
76551;BME280;68768;53.156;18.164;2023-07-24T01:13:32;100380.87;;;18.20;57.59
76551;BME280;68768;53.156;18.164;2023-07-24T01:16:14;100385.85;;;18.18;57.72
76551;BME280;68768;53.156;18.164;2023-07-24T01:18:42;100385.12;;;18.16;57.75
76551;BME280;68768;53.156;18.164;2023-07-24T01:21:11;100385.50;;;18.13;57.72
76551;BME280;68768;53.156;18.164;2023-07-24T01:23:48;100383.71;;;18.13;57.70
76551;BME280;68768;53.156;18.164;2023-07-24T01:26:21;100382.55;;;18.09;57.80
76551;BME280;68768;53.156;18.164;2023-07-24T01:28:53;100379.02;;;18.06;57.75
76551;BME280;68768;53.156;18.164;2023-07-24T01:31:20;100376.63;;;18.02;57.69
76551;BME280;68768;53.156;18.164;2023-07-24T01:33:48;100375.57;;;17.99;57.76
76551;BME280;68768;53.156;18.164;2023-07-24T01:36:18;100369.46;;;17.95;57.83
76551;BME280;68768;53.156;18.164;2023-07-24T01:38:46;100369.21;;;17.93;57.94
76551;BME280;68768;53.156;18.164;2023-07-24T01:41:14;100368.35;;;17.90;57.93
76551;BME280;68768;53.156;18.164;2023-07-24T01:43:41;100370.92;;;17.90;57.90
76551;BME280;68768;53.156;18.164;2023-07-24T01:46:08;100368.13;;;17.88;57.94
76551;BME280;68768;53.156;18.164;2023-07-24T01:48:36;100367.38;;;17.87;58.04
76551;BME280;68768;53.156;18.164;2023-07-24T01:51:03;100363.95;;;17.84;58.07
76551;BME280;68768;53.156;18.164;2023-07-24T01:53:30;100360.34;;;17.80;58.25
76551;BME280;68768;53.156;18.164;2023-07-24T01:55:58;100355.11;;;17.75;58.19
76551;BME280;68768;53.156;18.164;2023-07-24T01:58:25;100352.56;;;17.71;58.37
76551;BME280;68768;53.156;18.164;2023-07-24T02:00:55;100356.93;;;17.68;58.90
76551;BME280;68768;53.156;18.164;2023-07-24T02:03:22;100355.56;;;17.64;59.45
76551;BME280;68768;53.156;18.164;2023-07-24T02:05:50;100351.77;;;17.61;59.58
76551;BME280;68768;53.156;18.164;2023-07-24T02:08:18;100358.13;;;17.60;59.66
76551;BME280;68768;53.156;18.164;2023-07-24T02:10:48;100359.55;;;17.58;59.72
76551;BME280;68768;53.156;18.164;2023-07-24T02:13:16;100360.88;;;17.52;59.84
76551;BME280;68768;53.156;18.164;2023-07-24T02:15:48;100366.95;;;17.48;59.98
76551;BME280;68768;53.156;18.164;2023-07-24T02:18:15;100364.48;;;17.40;60.07
76551;BME280;68768;53.156;18.164;2023-07-24T02:20:48;100361.34;;;17.33;60.24
76551;BME280;68768;53.156;18.164;2023-07-24T02:23:16;100360.90;;;17.27;60.44
76551;BME280;68768;53.156;18.164;2023-07-24T02:25:43;100362.73;;;17.24;60.49
76551;BME280;68768;53.156;18.164;2023-07-24T02:28:10;100361.41;;;17.20;60.64
76551;BME280;68768;53.156;18.164;2023-07-24T02:30:38;100360.23;;;17.19;60.61
76551;BME280;68768;53.156;18.164;2023-07-24T02:33:06;100360.99;;;17.19;60.44
76551;BME280;68768;53.156;18.164;2023-07-24T02:35:41;100366.29;;;17.20;60.54
76551;BME280;68768;53.156;18.164;2023-07-24T02:38:08;100365.89;;;17.20;60.62
76551;BME280;68768;53.156;18.164;2023-07-24T02:40:36;100360.78;;;17.19;60.54
76551;BME280;68768;53.156;18.164;2023-07-24T02:43:03;100362.29;;;17.18;60.48
76551;BME280;68768;53.156;18.164;2023-07-24T02:45:30;100359.45;;;17.18;60.54
76551;BME280;68768;53.156;18.164;2023-07-24T02:48:00;100355.30;;;17.18;60.59
76551;BME280;68768;53.156;18.164;2023-07-24T02:50:28;100352.84;;;17.20;60.61
76551;BME280;68768;53.156;18.164;2023-07-24T02:52:56;100353.06;;;17.24;60.49
76551;BME280;68768;53.156;18.164;2023-07-24T02:55:23;100351.52;;;17.28;60.46
76551;BME280;68768;53.156;18.164;2023-07-24T02:57:50;100353.60;;;17.31;60.33
76551;BME280;68768;53.156;18.164;2023-07-24T03:00:17;100352.77;;;17.36;60.36
76551;BME280;68768;53.156;18.164;2023-07-24T03:02:44;100350.39;;;17.39;60.21
76551;BME280;68768;53.156;18.164;2023-07-24T03:05:11;100350.42;;;17.43;60.20
76551;BME280;68768;53.156;18.164;2023-07-24T03:07:38;100348.23;;;17.46;60.33
76551;BME280;68768;53.156;18.164;2023-07-24T03:10:05;100345.49;;;17.49;60.70
76551;BME280;68768;53.156;18.164;2023-07-24T03:12:34;100349.88;;;17.53;60.96
76551;BME280;68768;53.156;18.164;2023-07-24T03:15:03;100345.86;;;17.54;61.07
76551;BME280;68768;53.156;18.164;2023-07-24T03:17:30;100340.80;;;17.54;61.25
76551;BME280;68768;53.156;18.164;2023-07-24T03:19:58;100343.35;;;17.54;61.28
76551;BME280;68768;53.156;18.164;2023-07-24T03:22:25;100338.27;;;17.52;61.37
76551;BME280;68768;53.156;18.164;2023-07-24T03:24:51;100344.43;;;17.54;61.43
76551;BME280;68768;53.156;18.164;2023-07-24T03:27:18;100349.92;;;17.52;61.42
76551;BME280;68768;53.156;18.164;2023-07-24T03:29:45;100351.65;;;17.53;60.99
76551;BME280;68768;53.156;18.164;2023-07-24T03:32:12;100353.28;;;17.53;60.99
76551;BME280;68768;53.156;18.164;2023-07-24T03:34:40;100359.46;;;17.52;60.96
76551;BME280;68768;53.156;18.164;2023-07-24T03:37:07;100355.77;;;17.51;60.81
76551;BME280;68768;53.156;18.164;2023-07-24T03:39:34;100353.83;;;17.53;60.77
76551;BME280;68768;53.156;18.164;2023-07-24T03:42:02;100356.09;;;17.54;60.76
76551;BME280;68768;53.156;18.164;2023-07-24T03:44:29;100360.28;;;17.55;60.59
76551;BME280;68768;53.156;18.164;2023-07-24T03:46:57;100357.09;;;17.55;60.70
76551;BME280;68768;53.156;18.164;2023-07-24T03:49:24;100350.87;;;17.54;60.82
76551;BME280;68768;53.156;18.164;2023-07-24T03:51:51;100354.34;;;17.53;60.90
76551;BME280;68768;53.156;18.164;2023-07-24T03:54:18;100351.95;;;17.54;60.98
76551;BME280;68768;53.156;18.164;2023-07-24T03:56:45;100349.06;;;17.54;61.29
76551;BME280;68768;53.156;18.164;2023-07-24T03:59:12;100348.52;;;17.54;61.30
76551;BME280;68768;53.156;18.164;2023-07-24T04:01:39;100350.79;;;17.55;61.38
76551;BME280;68768;53.156;18.164;2023-07-24T04:04:06;100354.90;;;17.55;61.57
76551;BME280;68768;53.156;18.164;2023-07-24T04:06:33;100357.16;;;17.56;61.54
76551;BME280;68768;53.156;18.164;2023-07-24T04:09:00;100358.61;;;17.59;61.69
76551;BME280;68768;53.156;18.164;2023-07-24T04:11:27;100356.05;;;17.62;61.62
76551;BME280;68768;53.156;18.164;2023-07-24T04:13:54;100360.16;;;17.65;61.55
76551;BME280;68768;53.156;18.164;2023-07-24T04:16:21;100362.14;;;17.68;61.61
76551;BME280;68768;53.156;18.164;2023-07-24T04:18:48;100359.45;;;17.70;61.57
76551;BME280;68768;53.156;18.164;2023-07-24T04:21:15;100354.91;;;17.73;61.44
76551;BME280;68768;53.156;18.164;2023-07-24T04:23:42;100356.42;;;17.77;61.43
76551;BME280;68768;53.156;18.164;2023-07-24T04:26:09;100358.80;;;17.81;61.49
76551;BME280;68768;53.156;18.164;2023-07-24T04:28:36;100360.05;;;17.86;61.41
76551;BME280;68768;53.156;18.164;2023-07-24T04:31:03;100355.46;;;17.90;61.40
76551;BME280;68768;53.156;18.164;2023-07-24T04:33:30;100357.70;;;17.93;61.49
76551;BME280;68768;53.156;18.164;2023-07-24T04:35:57;100355.15;;;17.96;61.32
76551;BME280;68768;53.156;18.164;2023-07-24T04:38:24;100358.16;;;18.02;61.57
76551;BME280;68768;53.156;18.164;2023-07-24T04:40:51;100361.57;;;18.04;61.63
76551;BME280;68768;53.156;18.164;2023-07-24T04:43:18;100358.91;;;18.06;61.45
76551;BME280;68768;53.156;18.164;2023-07-24T04:45:45;100358.71;;;18.09;61.46
76551;BME280;68768;53.156;18.164;2023-07-24T04:48:12;100357.85;;;18.13;61.49
76551;BME280;68768;53.156;18.164;2023-07-24T04:50:39;100353.54;;;18.18;61.52
76551;BME280;68768;53.156;18.164;2023-07-24T04:53:06;100356.59;;;18.22;61.56
76551;BME280;68768;53.156;18.164;2023-07-24T04:55:33;100362.38;;;18.24;61.58
76551;BME280;68768;53.156;18.164;2023-07-24T04:58:00;100363.58;;;18.27;61.64
76551;BME280;68768;53.156;18.164;2023-07-24T05:00:27;100360.77;;;18.29;61.49
76551;BME280;68768;53.156;18.164;2023-07-24T05:02:54;100361.59;;;18.30;61.57
76551;BME280;68768;53.156;18.164;2023-07-24T05:05:21;100362.60;;;18.32;61.66
76551;BME280;68768;53.156;18.164;2023-07-24T05:07:48;100364.48;;;18.34;61.87
76551;BME280;68768;53.156;18.164;2023-07-24T05:10:15;100366.83;;;18.36;61.67
76551;BME280;68768;53.156;18.164;2023-07-24T05:12:42;100372.55;;;18.39;62.06
76551;BME280;68768;53.156;18.164;2023-07-24T05:15:09;100370.74;;;18.42;61.83
76551;BME280;68768;53.156;18.164;2023-07-24T05:17:36;100367.48;;;18.44;61.78
76551;BME280;68768;53.156;18.164;2023-07-24T05:20:04;100367.46;;;18.47;61.68
76551;BME280;68768;53.156;18.164;2023-07-24T05:22:31;100369.40;;;18.50;61.68
76551;BME280;68768;53.156;18.164;2023-07-24T05:24:58;100370.95;;;18.55;61.76
76551;BME280;68768;53.156;18.164;2023-07-24T05:27:25;100371.11;;;18.61;61.56
76551;BME280;68768;53.156;18.164;2023-07-24T05:29:52;100370.38;;;18.65;61.66
76551;BME280;68768;53.156;18.164;2023-07-24T05:32:19;100368.81;;;18.69;61.50
76551;BME280;68768;53.156;18.164;2023-07-24T05:34:46;100368.65;;;18.73;61.55
76551;BME280;68768;53.156;18.164;2023-07-24T05:37:13;100366.02;;;18.75;61.57
76551;BME280;68768;53.156;18.164;2023-07-24T05:39:40;100363.70;;;18.78;61.83
76551;BME280;68768;53.156;18.164;2023-07-24T05:42:07;100366.41;;;18.80;61.52
76551;BME280;68768;53.156;18.164;2023-07-24T05:44:34;100360.98;;;18.84;61.52
76551;BME280;68768;53.156;18.164;2023-07-24T05:47:04;100360.32;;;18.88;61.43
76551;BME280;68768;53.156;18.164;2023-07-24T05:49:31;100367.60;;;18.94;61.46
76551;BME280;68768;53.156;18.164;2023-07-24T05:51:58;100367.64;;;18.98;61.87
76551;BME280;68768;53.156;18.164;2023-07-24T05:54:25;100367.61;;;19.01;62.01
76551;BME280;68768;53.156;18.164;2023-07-24T05:56:52;100366.26;;;19.02;62.10
76551;BME280;68768;53.156;18.164;2023-07-24T05:59:19;100364.36;;;19.03;62.28
76551;BME280;68768;53.156;18.164;2023-07-24T06:01:46;100363.97;;;19.03;62.50
76551;BME280;68768;53.156;18.164;2023-07-24T06:04:13;100371.81;;;19.04;62.67
76551;BME280;68768;53.156;18.164;2023-07-24T06:06:40;100377.16;;;19.05;62.89
76551;BME280;68768;53.156;18.164;2023-07-24T06:09:07;100376.08;;;19.05;63.18
76551;BME280;68768;53.156;18.164;2023-07-24T06:11:34;100384.45;;;19.04;63.43
76551;BME280;68768;53.156;18.164;2023-07-24T06:14:01;100390.60;;;19.03;64.26
76551;BME280;68768;53.156;18.164;2023-07-24T06:16:28;100393.45;;;19.01;64.62
76551;BME280;68768;53.156;18.164;2023-07-24T06:18:55;100390.90;;;19.02;65.20
76551;BME280;68768;53.156;18.164;2023-07-24T06:21:22;100394.95;;;19.01;65.60
76551;BME280;68768;53.156;18.164;2023-07-24T06:23:49;100391.27;;;19.00;65.51
76551;BME280;68768;53.156;18.164;2023-07-24T06:26:16;100386.01;;;18.98;66.06
76551;BME280;68768;53.156;18.164;2023-07-24T06:28:43;100380.27;;;18.95;66.48
76551;BME280;68768;53.156;18.164;2023-07-24T06:31:10;100382.81;;;18.90;66.54
76551;BME280;68768;53.156;18.164;2023-07-24T06:33:37;100373.95;;;18.89;67.02
76551;BME280;68768;53.156;18.164;2023-07-24T06:36:09;100382.35;;;18.90;66.88
76551;BME280;68768;53.156;18.164;2023-07-24T06:38:36;100374.13;;;18.89;66.81
76551;BME280;68768;53.156;18.164;2023-07-24T06:41:03;100375.67;;;18.90;66.79
76551;BME280;68768;53.156;18.164;2023-07-24T06:43:30;100373.15;;;18.94;67.04
76551;BME280;68768;53.156;18.164;2023-07-24T06:45:57;100363.66;;;19.01;67.02
76551;BME280;68768;53.156;18.164;2023-07-24T06:48:24;100354.04;;;19.13;67.13
76551;BME280;68768;53.156;18.164;2023-07-24T06:50:51;100339.73;;;19.24;66.90
76551;BME280;68768;53.156;18.164;2023-07-24T06:53:18;100327.92;;;19.31;67.24
76551;BME280;68768;53.156;18.164;2023-07-24T06:55:45;100321.04;;;19.38;66.97
76551;BME280;68768;53.156;18.164;2023-07-24T06:58:12;100318.45;;;19.44;66.82
76551;BME280;68768;53.156;18.164;2023-07-24T07:00:40;100325.63;;;19.49;67.11
76551;BME280;68768;53.156;18.164;2023-07-24T07:03:06;100323.93;;;19.54;67.08
76551;BME280;68768;53.156;18.164;2023-07-24T07:05:34;100313.22;;;19.60;67.09
76551;BME280;68768;53.156;18.164;2023-07-24T07:08:01;100309.84;;;19.64;67.01
76551;BME280;68768;53.156;18.164;2023-07-24T07:10:28;100302.23;;;19.66;67.46
76551;BME280;68768;53.156;18.164;2023-07-24T07:12:55;100305.27;;;19.71;67.23
76551;BME280;68768;53.156;18.164;2023-07-24T07:15:22;100305.24;;;19.80;67.31
76551;BME280;68768;53.156;18.164;2023-07-24T07:17:49;100309.67;;;19.94;67.43
76551;BME280;68768;53.156;18.164;2023-07-24T07:20:16;100314.61;;;20.08;67.05
76551;BME280;68768;53.156;18.164;2023-07-24T07:22:43;100311.00;;;20.25;67.19
76551;BME280;68768;53.156;18.164;2023-07-24T07:25:10;100312.02;;;20.45;66.76
76551;BME280;68768;53.156;18.164;2023-07-24T07:27:37;100305.66;;;20.62;66.89
76551;BME280;68768;53.156;18.164;2023-07-24T07:30:05;100310.67;;;20.75;66.44
76551;BME280;68768;53.156;18.164;2023-07-24T07:32:33;100305.27;;;20.87;66.37
76551;BME280;68768;53.156;18.164;2023-07-24T07:35:00;100301.97;;;20.94;65.97
76551;BME280;68768;53.156;18.164;2023-07-24T07:37:27;100296.04;;;20.96;66.22
76551;BME280;68768;53.156;18.164;2023-07-24T07:39:54;100295.77;;;20.97;66.28
76551;BME280;68768;53.156;18.164;2023-07-24T07:42:21;100290.86;;;20.97;66.44
76551;BME280;68768;53.156;18.164;2023-07-24T07:44:48;100293.17;;;20.97;66.75
76551;BME280;68768;53.156;18.164;2023-07-24T07:47:15;100290.95;;;20.96;66.59
76551;BME280;68768;53.156;18.164;2023-07-24T07:49:42;100287.06;;;20.93;66.33
76551;BME280;68768;53.156;18.164;2023-07-24T07:52:09;100278.55;;;20.91;66.70
76551;BME280;68768;53.156;18.164;2023-07-24T07:54:36;100279.89;;;20.96;66.51
76551;BME280;68768;53.156;18.164;2023-07-24T07:57:04;100278.73;;;21.02;66.25
76551;BME280;68768;53.156;18.164;2023-07-24T07:59:31;100278.23;;;21.05;66.35
76551;BME280;68768;53.156;18.164;2023-07-24T08:01:58;100270.26;;;21.07;66.38
76551;BME280;68768;53.156;18.164;2023-07-24T08:04:26;100266.72;;;21.23;66.39
76551;BME280;68768;53.156;18.164;2023-07-24T08:06:53;100263.14;;;21.51;66.14
76551;BME280;68768;53.156;18.164;2023-07-24T08:09:20;100259.47;;;21.75;66.07
76551;BME280;68768;53.156;18.164;2023-07-24T08:11:48;100256.17;;;21.99;65.87
76551;BME280;68768;53.156;18.164;2023-07-24T08:14:15;100255.19;;;22.34;65.11
76551;BME280;68768;53.156;18.164;2023-07-24T08:16:42;100250.30;;;22.76;64.63
76551;BME280;68768;53.156;18.164;2023-07-24T08:19:09;100245.80;;;23.29;64.28
76551;BME280;68768;53.156;18.164;2023-07-24T08:21:36;100240.20;;;23.87;62.90
76551;BME280;68768;53.156;18.164;2023-07-24T08:24:06;100239.60;;;24.39;61.94
76551;BME280;68768;53.156;18.164;2023-07-24T08:26:33;100234.93;;;24.76;60.81
76551;BME280;68768;53.156;18.164;2023-07-24T08:28:59;100230.55;;;25.21;60.50
76551;BME280;68768;53.156;18.164;2023-07-24T08:31:26;100234.09;;;25.77;59.54
76551;BME280;68768;53.156;18.164;2023-07-24T08:33:55;100226.75;;;26.27;58.41
76551;BME280;68768;53.156;18.164;2023-07-24T08:36:22;100219.34;;;26.62;57.80
76551;BME280;68768;53.156;18.164;2023-07-24T08:38:50;100210.83;;;26.97;56.35
76551;BME280;68768;53.156;18.164;2023-07-24T08:41:17;100203.98;;;27.28;55.63
76551;BME280;68768;53.156;18.164;2023-07-24T08:43:44;100202.27;;;27.59;54.91
76551;BME280;68768;53.156;18.164;2023-07-24T08:46:11;100194.14;;;27.86;53.66
76551;BME280;68768;53.156;18.164;2023-07-24T08:48:40;100190.27;;;27.99;53.52
76551;BME280;68768;53.156;18.164;2023-07-24T08:51:11;100192.76;;;28.05;52.35
76551;BME280;68768;53.156;18.164;2023-07-24T08:53:40;100187.73;;;28.07;51.59
76551;BME280;68768;53.156;18.164;2023-07-24T08:56:10;100188.87;;;27.95;51.16
76551;BME280;68768;53.156;18.164;2023-07-24T08:58:38;100188.62;;;27.82;50.88
76551;BME280;68768;53.156;18.164;2023-07-24T09:01:08;100187.05;;;27.70;50.60
76551;BME280;68768;53.156;18.164;2023-07-24T09:03:37;100178.87;;;27.75;50.03
76551;BME280;68768;53.156;18.164;2023-07-24T09:06:04;100181.80;;;27.79;49.42
76551;BME280;68768;53.156;18.164;2023-07-24T09:08:35;100185.25;;;27.86;48.80
76551;BME280;68768;53.156;18.164;2023-07-24T09:11:04;100180.58;;;27.96;48.72
76551;BME280;68768;53.156;18.164;2023-07-24T09:13:33;100178.58;;;28.11;48.46
76551;BME280;68768;53.156;18.164;2023-07-24T09:16:02;100175.21;;;28.22;47.65
76551;BME280;68768;53.156;18.164;2023-07-24T09:18:42;100177.27;;;28.22;47.55
76551;BME280;68768;53.156;18.164;2023-07-24T09:21:10;100172.55;;;28.29;47.23
76551;BME280;68768;53.156;18.164;2023-07-24T09:23:39;100166.20;;;28.42;47.36
76551;BME280;68768;53.156;18.164;2023-07-24T09:26:10;100166.52;;;28.53;47.01
76551;BME280;68768;53.156;18.164;2023-07-24T09:28:37;100166.23;;;28.48;46.60
76551;BME280;68768;53.156;18.164;2023-07-24T09:31:05;100156.90;;;28.38;46.30
76551;BME280;68768;53.156;18.164;2023-07-24T09:33:41;100157.70;;;28.30;46.39
76551;BME280;68768;53.156;18.164;2023-07-24T09:36:10;100165.95;;;28.17;45.26
76551;BME280;68768;53.156;18.164;2023-07-24T09:38:39;100161.65;;;28.06;45.49
76551;BME280;68768;53.156;18.164;2023-07-24T09:41:07;100155.28;;;27.96;45.50
76551;BME280;68768;53.156;18.164;2023-07-24T09:43:34;100150.39;;;27.95;45.56
76551;BME280;68768;53.156;18.164;2023-07-24T09:46:04;100141.39;;;27.97;45.18
76551;BME280;68768;53.156;18.164;2023-07-24T09:48:33;100140.56;;;27.84;44.32
76551;BME280;68768;53.156;18.164;2023-07-24T09:51:01;100142.25;;;27.63;44.47
76551;BME280;68768;53.156;18.164;2023-07-24T09:53:50;100144.83;;;27.45;44.54
76551;BME280;68768;53.156;18.164;2023-07-24T09:56:21;100143.40;;;27.27;44.29
76551;BME280;68768;53.156;18.164;2023-07-24T09:58:50;100140.64;;;27.13;44.60
76551;BME280;68768;53.156;18.164;2023-07-24T10:01:22;100147.56;;;27.02;44.52
76551;BME280;68768;53.156;18.164;2023-07-24T10:03:50;100141.90;;;26.88;44.47
76551;BME280;68768;53.156;18.164;2023-07-24T10:06:18;100139.61;;;26.75;44.82
76551;BME280;68768;53.156;18.164;2023-07-24T10:08:46;100133.99;;;26.63;44.87
76551;BME280;68768;53.156;18.164;2023-07-24T10:11:14;100125.16;;;26.60;45.35
76551;BME280;68768;53.156;18.164;2023-07-24T10:13:41;100112.11;;;26.65;45.09
76551;BME280;68768;53.156;18.164;2023-07-24T10:16:09;100111.50;;;26.75;44.88
76551;BME280;68768;53.156;18.164;2023-07-24T10:18:43;100106.86;;;26.82;44.69
76551;BME280;68768;53.156;18.164;2023-07-24T10:21:11;100106.80;;;26.89;44.62
76551;BME280;68768;53.156;18.164;2023-07-24T10:23:45;100095.98;;;27.01;44.56
76551;BME280;68768;53.156;18.164;2023-07-24T10:26:15;100090.89;;;27.11;44.39
76551;BME280;68768;53.156;18.164;2023-07-24T10:28:47;100085.73;;;27.23;44.36
76551;BME280;68768;53.156;18.164;2023-07-24T10:31:23;100075.49;;;27.31;43.89
76551;BME280;68768;53.156;18.164;2023-07-24T10:33:52;100070.95;;;27.41;43.91
76551;BME280;68768;53.156;18.164;2023-07-24T10:36:21;100070.59;;;27.50;43.46
76551;BME280;68768;53.156;18.164;2023-07-24T10:38:54;100071.34;;;27.55;43.07
76551;BME280;68768;53.156;18.164;2023-07-24T10:41:21;100067.80;;;27.59;42.88
76551;BME280;68768;53.156;18.164;2023-07-24T10:43:48;100070.02;;;27.63;42.87
76551;BME280;68768;53.156;18.164;2023-07-24T10:46:17;100075.20;;;27.68;42.59
76551;BME280;68768;53.156;18.164;2023-07-24T10:48:47;100064.29;;;27.73;42.27
76551;BME280;68768;53.156;18.164;2023-07-24T10:51:14;100060.91;;;27.70;42.40
76551;BME280;68768;53.156;18.164;2023-07-24T10:53:49;100060.95;;;27.71;42.44
76551;BME280;68768;53.156;18.164;2023-07-24T10:56:16;100059.96;;;27.75;42.24
76551;BME280;68768;53.156;18.164;2023-07-24T10:58:44;100066.38;;;27.82;42.43
76551;BME280;68768;53.156;18.164;2023-07-24T11:01:11;100066.36;;;27.86;42.30
76551;BME280;68768;53.156;18.164;2023-07-24T11:03:40;100062.60;;;27.87;42.06
76551;BME280;68768;53.156;18.164;2023-07-24T11:06:20;100062.39;;;27.87;42.02
76551;BME280;68768;53.156;18.164;2023-07-24T11:08:54;100059.23;;;27.84;41.72
76551;BME280;68768;53.156;18.164;2023-07-24T11:11:35;100054.09;;;27.86;42.02
76551;BME280;68768;53.156;18.164;2023-07-24T11:14:03;100053.14;;;27.96;42.09
76551;BME280;68768;53.156;18.164;2023-07-24T11:16:30;100045.00;;;28.01;41.59
76551;BME280;68768;53.156;18.164;2023-07-24T11:18:59;100041.48;;;27.98;41.56
76551;BME280;68768;53.156;18.164;2023-07-24T11:21:27;100042.38;;;27.94;41.43
76551;BME280;68768;53.156;18.164;2023-07-24T11:23:56;100039.61;;;27.90;41.45
76551;BME280;68768;53.156;18.164;2023-07-24T11:26:25;100041.79;;;27.84;41.67
76551;BME280;68768;53.156;18.164;2023-07-24T11:28:53;100039.86;;;27.78;41.45
76551;BME280;68768;53.156;18.164;2023-07-24T11:31:20;100042.05;;;27.78;41.44
76551;BME280;68768;53.156;18.164;2023-07-24T11:33:49;100040.61;;;27.81;41.29
76551;BME280;68768;53.156;18.164;2023-07-24T11:36:17;100047.21;;;27.86;41.39
76551;BME280;68768;53.156;18.164;2023-07-24T11:38:46;100049.65;;;27.91;41.46
76551;BME280;68768;53.156;18.164;2023-07-24T11:41:13;100048.04;;;27.98;41.02
76551;BME280;68768;53.156;18.164;2023-07-24T11:43:47;100045.53;;;28.02;41.13
76551;BME280;68768;53.156;18.164;2023-07-24T11:46:27;100035.55;;;27.96;40.79
76551;BME280;68768;53.156;18.164;2023-07-24T11:48:55;100044.41;;;27.86;41.07
76551;BME280;68768;53.156;18.164;2023-07-24T11:51:26;100045.22;;;27.79;41.20
76551;BME280;68768;53.156;18.164;2023-07-24T11:54:06;100035.34;;;27.77;41.16
76551;BME280;68768;53.156;18.164;2023-07-24T11:56:34;100036.99;;;27.75;41.15
76551;BME280;68768;53.156;18.164;2023-07-24T11:59:14;100027.42;;;27.76;41.21
76551;BME280;68768;53.156;18.164;2023-07-24T12:01:48;100017.06;;;27.81;40.90
76551;BME280;68768;53.156;18.164;2023-07-24T12:04:16;100017.15;;;27.82;40.78
76551;BME280;68768;53.156;18.164;2023-07-24T12:06:43;100014.50;;;27.79;40.76
76551;BME280;68768;53.156;18.164;2023-07-24T12:09:11;100009.81;;;27.81;40.59
76551;BME280;68768;53.156;18.164;2023-07-24T12:11:43;100008.79;;;27.86;40.60
76551;BME280;68768;53.156;18.164;2023-07-24T12:14:10;100006.31;;;27.92;40.40
76551;BME280;68768;53.156;18.164;2023-07-24T12:16:38;100001.13;;;28.00;40.36
76551;BME280;68768;53.156;18.164;2023-07-24T12:19:05;100008.91;;;28.02;40.05
76551;BME280;68768;53.156;18.164;2023-07-24T12:21:33;100005.69;;;28.03;40.15
76551;BME280;68768;53.156;18.164;2023-07-24T12:24:00;100003.56;;;28.02;40.00
76551;BME280;68768;53.156;18.164;2023-07-24T12:26:27;99995.63;;;28.00;39.87
76551;BME280;68768;53.156;18.164;2023-07-24T12:28:54;99995.20;;;28.00;39.66
76551;BME280;68768;53.156;18.164;2023-07-24T12:31:22;99997.04;;;27.93;39.85
76551;BME280;68768;53.156;18.164;2023-07-24T12:33:49;99995.56;;;27.88;39.87
76551;BME280;68768;53.156;18.164;2023-07-24T12:36:17;99993.19;;;27.83;39.77
76551;BME280;68768;53.156;18.164;2023-07-24T12:38:44;99986.89;;;27.79;39.83
76551;BME280;68768;53.156;18.164;2023-07-24T12:41:11;99981.68;;;27.76;39.68
76551;BME280;68768;53.156;18.164;2023-07-24T12:43:38;99978.67;;;27.76;39.66
76551;BME280;68768;53.156;18.164;2023-07-24T12:46:05;99974.02;;;27.76;39.79